Time;durP1;ratioP1;P1;durP2;ratioP2;P2;SDS_P1;SDS_P2;PMS_P1;PMS_P2;Temp;Humidity;BMP_temperature;BMP_pressure;BME280_temperature;BME280_humidity;BME280_pressure;Samples;Min_cycle;Max_cycle;Signal;HPM_P1;HPM_P2
2024/01/21 00:02:11;;;;;;;11.15;4.70;;;-1.10;99.90;;;;;;4989795;28;20480;-72
2024/01/21 00:04:37;;;;;;;6.32;2.88;;;-1.10;99.90;;;;;;4990785;28;20038;-72
2024/01/21 00:07:02;;;;;;;11.23;4.95;;;-1.10;99.90;;;;;;4989545;28;20409;-72
2024/01/21 00:09:28;;;;;;;7.55;3.22;;;-1.10;99.90;;;;;;4985945;28;20472;-73
2024/01/21 00:11:54;;;;;;;6.10;2.63;;;-1.10;99.90;;;;;;4991587;28;20033;-74
2024/01/21 00:14:20;;;;;;;24.33;10.85;;;-1.10;99.90;;;;;;4986831;28;20029;-72
2024/01/21 00:16:46;;;;;;;32.33;14.15;;;-1.10;99.90;;;;;;4990123;28;20038;-72
2024/01/21 00:19:11;;;;;;;24.85;12.82;;;-1.20;99.90;;;;;;4983665;28;20035;-71
2024/01/21 00:21:37;;;;;;;27.83;14.30;;;-1.30;99.90;;;;;;4989251;28;20037;-71
2024/01/21 00:24:03;;;;;;;34.92;15.80;;;-1.40;99.90;;;;;;4989526;28;20022;-72
2024/01/21 00:26:28;;;;;;;32.60;15.57;;;-1.50;99.90;;;;;;4988129;28;20050;-72
2024/01/21 00:28:55;;;;;;;37.00;18.10;;;-1.60;99.90;;;;;;4986760;28;20029;-72
2024/01/21 00:31:21;;;;;;;37.28;17.40;;;-1.60;99.90;;;;;;4990340;28;20026;-72
2024/01/21 00:33:46;;;;;;;34.28;16.38;;;-1.70;99.90;;;;;;4989681;28;20035;-71
2024/01/21 00:36:12;;;;;;;36.17;16.67;;;-1.80;99.90;;;;;;4984660;28;20038;-72
2024/01/21 00:38:38;;;;;;;35.53;16.42;;;-1.80;99.90;;;;;;4985903;28;20027;-73
2024/01/21 00:41:04;;;;;;;31.45;16.23;;;-1.90;99.90;;;;;;4987531;28;20026;-72
2024/01/21 00:43:30;;;;;;;35.67;18.08;;;-2.00;99.90;;;;;;4984366;28;20617;-73
2024/01/21 00:45:56;;;;;;;35.90;17.52;;;-2.10;99.90;;;;;;4986781;28;20054;-72
2024/01/21 00:48:21;;;;;;;30.80;15.70;;;-2.10;99.90;;;;;;4983506;28;20493;-72
2024/01/21 00:50:47;;;;;;;31.00;15.38;;;-2.10;99.90;;;;;;4987202;28;20029;-73
2024/01/21 00:53:13;;;;;;;32.70;15.43;;;-2.20;99.90;;;;;;4987686;28;20030;-72
2024/01/21 00:55:39;;;;;;;32.88;15.35;;;-2.20;99.90;;;;;;4988246;28;20033;-71
2024/01/21 00:58:04;;;;;;;33.80;15.63;;;-2.30;99.90;;;;;;4985679;28;20032;-72
2024/01/21 01:00:30;;;;;;;33.22;15.23;;;-2.30;99.90;;;;;;4987099;28;20050;-72
2024/01/21 01:02:55;;;;;;;36.05;14.88;;;-2.30;99.90;;;;;;4989136;28;20030;-71
2024/01/21 01:05:21;;;;;;;31.48;16.48;;;-2.40;99.90;;;;;;4990283;28;20092;-72
2024/01/21 01:07:46;;;;;;;36.22;16.30;;;-2.40;99.90;;;;;;4986712;28;20449;-72
2024/01/21 01:10:12;;;;;;;30.42;14.93;;;-2.40;99.90;;;;;;4989235;28;20030;-72
2024/01/21 01:12:39;;;;;;;33.33;16.58;;;-2.40;99.90;;;;;;4986644;28;20403;-71
2024/01/21 01:15:07;;;;;;;33.22;15.57;;;-2.40;99.90;;;;;;4988652;28;20026;-72
2024/01/21 01:17:33;;;;;;;30.42;15.02;;;-2.40;99.90;;;;;;4987629;28;20102;-73
2024/01/21 01:19:58;;;;;;;32.40;15.02;;;-2.40;99.90;;;;;;4988115;28;20454;-74
2024/01/21 01:22:24;;;;;;;31.90;16.02;;;-2.50;99.90;;;;;;4984390;28;20050;-72
2024/01/21 01:24:49;;;;;;;36.30;16.90;;;-2.50;99.90;;;;;;4987519;28;20092;-71
2024/01/21 01:27:15;;;;;;;34.67;16.88;;;-2.50;99.90;;;;;;4983869;28;20038;-72
2024/01/21 01:29:40;;;;;;;33.17;14.45;;;-2.50;99.90;;;;;;4986801;28;20030;-72
2024/01/21 01:32:06;;;;;;;32.88;16.13;;;-2.50;99.90;;;;;;4987794;28;20041;-72
2024/01/21 01:34:31;;;;;;;37.58;16.63;;;-2.50;99.90;;;;;;4986858;28;20113;-72
2024/01/21 01:36:57;;;;;;;32.25;16.15;;;-2.50;99.90;;;;;;4984872;28;20551;-72
2024/01/21 01:39:23;;;;;;;34.65;16.50;;;-2.50;99.90;;;;;;4986397;28;20052;-72
2024/01/21 01:41:48;;;;;;;32.08;15.90;;;-2.50;99.90;;;;;;4987774;28;20085;-71
2024/01/21 01:44:14;;;;;;;34.20;15.82;;;-2.50;99.90;;;;;;4989439;28;20086;-72
2024/01/21 01:46:40;;;;;;;35.95;16.33;;;-2.50;99.90;;;;;;4984562;28;20035;-73
2024/01/21 01:49:05;;;;;;;32.65;14.73;;;-2.50;99.90;;;;;;4990253;28;20022;-73
2024/01/21 01:51:33;;;;;;;36.20;16.63;;;-2.50;99.90;;;;;;4992575;28;20081;-73
2024/01/21 01:53:58;;;;;;;32.72;15.73;;;-2.50;99.90;;;;;;5003892;28;20054;-73
2024/01/21 01:56:24;;;;;;;29.45;14.88;;;-2.50;99.90;;;;;;4991074;28;20100;-73
2024/01/21 01:58:51;;;;;;;32.53;16.02;;;-2.60;99.90;;;;;;4989763;28;20034;-73
2024/01/21 02:01:17;;;;;;;37.17;15.77;;;-2.50;99.90;;;;;;4992352;28;20038;-72
2024/01/21 02:03:45;;;;;;;35.50;15.52;;;-2.60;99.90;;;;;;4992943;28;20393;-72
2024/01/21 02:06:10;;;;;;;30.85;14.35;;;-2.60;99.90;;;;;;4990759;28;20030;-72
2024/01/21 02:08:36;;;;;;;32.03;15.57;;;-2.60;99.90;;;;;;4990877;28;20393;-73
2024/01/21 02:11:02;;;;;;;33.75;16.75;;;-2.60;99.90;;;;;;4992367;28;20093;-73
2024/01/21 02:13:30;;;;;;;34.47;16.95;;;-2.60;99.90;;;;;;4990111;28;20031;-75
2024/01/21 02:15:58;;;;;;;35.88;16.90;;;-2.60;99.90;;;;;;4988436;28;20048;-73
2024/01/21 02:18:24;;;;;;;34.90;15.73;;;-2.60;99.90;;;;;;4990800;28;20057;-72
2024/01/21 02:20:51;;;;;;;32.33;16.95;;;-2.60;99.90;;;;;;4989253;28;20066;-72
2024/01/21 02:23:16;;;;;;;38.33;17.83;;;-2.70;99.90;;;;;;4987177;28;20425;-73
2024/01/21 02:25:42;;;;;;;33.38;15.65;;;-2.70;99.90;;;;;;4987467;28;20030;-72
2024/01/21 02:28:08;;;;;;;34.70;16.40;;;-2.70;99.90;;;;;;4992725;28;20519;-72
2024/01/21 02:30:37;;;;;;;33.03;17.20;;;-2.70;99.90;;;;;;4991006;28;20037;-72
2024/01/21 02:33:03;;;;;;;39.90;17.42;;;-2.70;99.90;;;;;;4987440;28;20588;-73
2024/01/21 02:35:29;;;;;;;35.85;16.60;;;-2.70;99.90;;;;;;4984483;28;20105;-76
2024/01/21 02:37:54;;;;;;;33.15;17.08;;;-2.70;99.90;;;;;;4990908;28;20117;-73
2024/01/21 02:40:20;;;;;;;32.55;16.98;;;-2.80;99.90;;;;;;4991037;28;20027;-73
2024/01/21 02:42:45;;;;;;;33.35;16.17;;;-2.80;99.90;;;;;;4990841;28;20037;-73
2024/01/21 02:45:11;;;;;;;36.90;15.85;;;-2.90;99.90;;;;;;4989903;28;20116;-73
2024/01/21 02:47:37;;;;;;;32.55;16.90;;;-2.90;99.90;;;;;;4990345;28;20489;-72
2024/01/21 02:50:02;;;;;;;33.42;15.82;;;-2.90;99.90;;;;;;4985620;28;20464;-73
2024/01/21 02:52:28;;;;;;;36.95;16.77;;;-3.00;99.90;;;;;;4990824;28;20034;-74
2024/01/21 02:54:53;;;;;;;34.42;17.08;;;-2.90;99.90;;;;;;4989342;28;20038;-73
2024/01/21 02:57:19;;;;;;;32.08;15.50;;;-3.00;99.90;;;;;;4990662;28;20049;-73
2024/01/21 02:59:44;;;;;;;34.03;15.60;;;-2.90;99.90;;;;;;4988742;28;20394;-73
2024/01/21 03:02:10;;;;;;;29.38;15.02;;;-2.90;99.90;;;;;;4991063;28;20030;-73
2024/01/21 03:04:36;;;;;;;31.23;15.35;;;-2.90;99.90;;;;;;4988730;28;20027;-72
2024/01/21 03:07:01;;;;;;;33.17;15.40;;;-3.00;99.90;;;;;;4989832;28;20363;-72
2024/01/21 03:09:27;;;;;;;29.13;14.85;;;-2.90;99.90;;;;;;4988968;28;20030;-73
2024/01/21 03:11:54;;;;;;;34.42;15.40;;;-3.00;99.90;;;;;;4991443;28;20019;-73
2024/01/21 03:14:20;;;;;;;32.13;14.93;;;-3.00;99.90;;;;;;4989295;28;20027;-74
2024/01/21 03:16:45;;;;;;;26.05;14.10;;;-3.10;99.90;;;;;;4990616;28;20351;-73
2024/01/21 03:19:11;;;;;;;32.53;14.32;;;-3.10;99.90;;;;;;4988759;28;20042;-74
2024/01/21 03:21:36;;;;;;;31.08;14.82;;;-3.10;99.90;;;;;;4989188;28;20520;-73
2024/01/21 03:24:02;;;;;;;30.05;13.60;;;-3.00;99.90;;;;;;4986946;28;20053;-73
2024/01/21 03:26:28;;;;;;;30.33;14.52;;;-3.10;99.90;;;;;;4987441;28;20502;-73
2024/01/21 03:28:53;;;;;;;27.55;14.07;;;-3.10;99.90;;;;;;4984890;28;20030;-73
2024/01/21 03:31:19;;;;;;;26.38;13.00;;;-3.10;99.90;;;;;;4987527;28;20046;-73
2024/01/21 03:33:45;;;;;;;32.22;14.98;;;-3.10;99.90;;;;;;4988780;28;20026;-73
2024/01/21 03:36:11;;;;;;;30.52;13.70;;;-3.20;99.90;;;;;;4988417;28;21289;-72
2024/01/21 03:38:37;;;;;;;26.27;12.75;;;-3.20;99.90;;;;;;4986483;28;20080;-73
2024/01/21 03:41:03;;;;;;;30.58;14.55;;;-3.20;99.90;;;;;;4989582;28;20027;-73
2024/01/21 03:43:28;;;;;;;32.78;15.38;;;-3.30;99.90;;;;;;4983979;28;20520;-75
2024/01/21 03:45:54;;;;;;;37.25;16.25;;;-3.30;99.90;;;;;;4988258;28;20058;-73
2024/01/21 03:48:20;;;;;;;32.63;15.95;;;-3.30;99.90;;;;;;4987343;28;20418;-73
2024/01/21 03:50:45;;;;;;;32.75;14.63;;;-3.30;99.90;;;;;;4984669;28;20065;-72
2024/01/21 03:53:11;;;;;;;33.72;14.27;;;-3.20;99.90;;;;;;4986315;28;20415;-73
2024/01/21 03:55:36;;;;;;;20.30;10.05;;;-3.20;99.90;;;;;;4986786;28;20022;-72
2024/01/21 03:58:02;;;;;;;18.52;9.07;;;-3.10;99.90;;;;;;4985490;28;20102;-73
2024/01/21 04:00:28;;;;;;;18.55;9.75;;;-3.10;99.90;;;;;;4988481;28;20058;-73
2024/01/21 04:02:53;;;;;;;15.30;9.30;;;-3.00;99.90;;;;;;4990992;28;20023;-73
2024/01/21 04:05:19;;;;;;;17.48;9.07;;;-2.90;99.90;;;;;;4988169;28;20030;-73
2024/01/21 04:07:45;;;;;;;16.08;8.02;;;-2.90;99.90;;;;;;4987753;28;20105;-72
2024/01/21 04:10:11;;;;;;;18.55;8.98;;;-2.80;99.90;;;;;;4980810;28;20069;-72
2024/01/21 04:12:37;;;;;;;17.98;8.93;;;-2.80;99.90;;;;;;4988624;28;20117;-73
2024/01/21 04:15:03;;;;;;;20.50;9.65;;;-2.70;99.90;;;;;;4949244;28;1082313;-72
2024/01/21 04:17:29;;;;;;;19.92;10.00;;;-2.70;99.90;;;;;;4989898;28;20113;-74
2024/01/21 04:19:55;;;;;;;20.08;10.77;;;-2.60;99.90;;;;;;4988449;28;20023;-73
2024/01/21 04:22:21;;;;;;;19.35;9.57;;;-2.60;99.90;;;;;;4989056;28;20032;-73
2024/01/21 04:24:47;;;;;;;20.98;10.13;;;-2.60;99.90;;;;;;4988763;28;20069;-74
2024/01/21 04:27:13;;;;;;;22.20;11.07;;;-2.70;99.90;;;;;;4990424;28;20026;-73
2024/01/21 04:29:39;;;;;;;23.33;10.18;;;-2.60;99.90;;;;;;4989098;28;20034;-74
2024/01/21 04:32:04;;;;;;;24.73;10.75;;;-2.60;99.90;;;;;;4987578;28;20385;-73
2024/01/21 04:34:30;;;;;;;21.27;9.57;;;-2.60;99.90;;;;;;4985972;28;20089;-73
2024/01/21 04:36:55;;;;;;;20.33;9.77;;;-2.70;99.90;;;;;;4990090;28;20028;-73
2024/01/21 04:39:22;;;;;;;20.15;10.48;;;-2.70;99.90;;;;;;4988788;28;20038;-73
2024/01/21 04:41:48;;;;;;;19.02;9.18;;;-2.70;99.90;;;;;;4987816;28;20441;-73
2024/01/21 04:44:14;;;;;;;19.05;8.68;;;-2.80;99.90;;;;;;4988653;28;20030;-72
2024/01/21 04:46:39;;;;;;;14.27;8.65;;;-2.70;99.90;;;;;;4985403;28;20030;-72
2024/01/21 04:49:05;;;;;;;17.15;8.27;;;-2.70;99.90;;;;;;4986474;28;20429;-72
2024/01/21 04:51:31;;;;;;;13.25;7.53;;;-2.70;99.90;;;;;;4988119;28;20068;-73
2024/01/21 04:53:57;;;;;;;13.80;7.38;;;-2.60;99.90;;;;;;4986306;28;20026;-73
2024/01/21 04:56:22;;;;;;;15.45;7.68;;;-2.50;99.90;;;;;;4986419;28;20104;-73
2024/01/21 04:58:48;;;;;;;13.13;7.50;;;-2.50;99.90;;;;;;4984942;28;20030;-73
2024/01/21 05:01:15;;;;;;;16.25;7.80;;;-2.40;99.90;;;;;;4984699;28;20026;-74
2024/01/21 05:03:41;;;;;;;15.80;7.43;;;-2.40;99.90;;;;;;4990295;28;20026;-73
2024/01/21 05:06:07;;;;;;;18.45;8.60;;;-2.30;99.90;;;;;;4988317;28;20033;-72
2024/01/21 05:08:32;;;;;;;15.73;8.52;;;-2.30;99.90;;;;;;4988903;28;20030;-72
2024/01/21 05:10:59;;;;;;;15.93;7.80;;;-2.30;99.90;;;;;;4988747;28;20367;-73
2024/01/21 05:13:24;;;;;;;15.32;8.30;;;-2.20;99.90;;;;;;4984290;28;20038;-72
2024/01/21 05:15:50;;;;;;;15.00;8.23;;;-2.20;99.90;;;;;;4987622;28;20057;-73
2024/01/21 05:18:16;;;;;;;15.85;7.82;;;-2.10;99.90;;;;;;4988580;28;20474;-73
2024/01/21 05:20:43;;;;;;;14.35;7.82;;;-2.10;99.90;;;;;;4987505;28;20568;-74
2024/01/21 05:23:08;;;;;;;16.98;7.82;;;-2.10;99.90;;;;;;4987016;28;20034;-73
2024/01/21 05:25:34;;;;;;;15.48;8.15;;;-2.10;99.90;;;;;;4985386;28;20042;-73
2024/01/21 05:28:00;;;;;;;14.43;7.68;;;-2.00;99.90;;;;;;4986837;28;20517;-74
2024/01/21 05:30:25;;;;;;;14.85;7.75;;;-2.00;99.90;;;;;;4988047;28;20130;-73
2024/01/21 05:32:51;;;;;;;25.15;10.23;;;-2.00;99.90;;;;;;4986775;28;20030;-73
2024/01/21 05:35:18;;;;;;;22.38;11.70;;;-2.20;99.90;;;;;;4983852;28;20026;-73
2024/01/21 05:37:44;;;;;;;22.33;11.23;;;-2.30;99.90;;;;;;4985152;28;20130;-74
2024/01/21 05:40:10;;;;;;;20.25;10.63;;;-2.40;99.90;;;;;;4984316;28;20448;-73
2024/01/21 05:42:35;;;;;;;22.45;10.90;;;-2.60;99.90;;;;;;4988480;28;20121;-73
2024/01/21 05:45:01;;;;;;;26.58;10.63;;;-2.80;99.90;;;;;;4988432;28;20037;-73
2024/01/21 05:47:26;;;;;;;24.85;9.73;;;-2.90;99.90;;;;;;4985853;28;20037;-73
2024/01/21 05:49:52;;;;;;;21.25;10.32;;;-3.00;99.90;;;;;;4986268;28;20089;-73
2024/01/21 05:52:18;;;;;;;25.17;10.75;;;-3.00;99.90;;;;;;4985480;28;20082;-72
2024/01/21 05:54:43;;;;;;;19.25;9.15;;;-3.00;99.90;;;;;;4987473;28;20021;-73
2024/01/21 05:57:09;;;;;;;21.70;9.70;;;-3.10;99.90;;;;;;4989151;28;20501;-73
2024/01/21 05:59:35;;;;;;;21.15;10.52;;;-3.10;99.90;;;;;;4985667;28;20022;-73
2024/01/21 06:02:01;;;;;;;24.77;9.25;;;-3.20;99.90;;;;;;4984555;28;20081;-72
2024/01/21 06:04:26;;;;;;;16.23;9.15;;;-3.10;99.90;;;;;;4987775;28;20084;-73
2024/01/21 06:06:52;;;;;;;18.35;8.23;;;-3.10;99.90;;;;;;4986483;28;20104;-72
2024/01/21 06:09:18;;;;;;;16.77;8.18;;;-3.10;99.90;;;;;;4987507;28;20041;-73
2024/01/21 06:11:46;;;;;;;21.27;9.57;;;-3.10;99.90;;;;;;4985286;28;20442;-73
2024/01/21 06:14:12;;;;;;;20.33;9.88;;;-3.10;99.90;;;;;;4985605;28;20184;-72
2024/01/21 06:16:38;;;;;;;23.33;10.27;;;-3.20;99.90;;;;;;4984312;28;20093;-73
2024/01/21 06:19:04;;;;;;;24.75;11.77;;;-3.20;99.90;;;;;;4987574;28;20026;-73
2024/01/21 06:21:30;;;;;;;27.88;11.75;;;-3.20;99.90;;;;;;4987152;28;20103;-74
2024/01/21 06:23:56;;;;;;;22.98;10.20;;;-3.20;99.90;;;;;;4988259;28;20497;-74
2024/01/21 06:26:22;;;;;;;21.48;9.98;;;-3.20;99.90;;;;;;4981946;28;20030;-73
2024/01/21 06:28:52;;;;;;;25.40;11.13;;;-3.20;99.90;;;;;;4985487;28;20026;-73
2024/01/21 06:31:18;;;;;;;22.95;10.82;;;-3.20;99.90;;;;;;4988084;28;20132;-72
2024/01/21 06:33:44;;;;;;;25.75;10.35;;;-3.20;99.90;;;;;;4986203;28;20552;-73
2024/01/21 06:36:09;;;;;;;21.08;11.05;;;-3.10;99.90;;;;;;4991188;28;20058;-73
2024/01/21 06:38:35;;;;;;;25.08;10.10;;;-3.10;99.90;;;;;;4989742;28;20049;-73
2024/01/21 06:41:00;;;;;;;27.42;11.52;;;-3.10;99.90;;;;;;4989827;28;20026;-73
2024/01/21 06:43:26;;;;;;;22.95;11.07;;;-3.10;99.90;;;;;;4990502;28;20034;-73
2024/01/21 06:45:52;;;;;;;21.08;9.68;;;-3.10;99.90;;;;;;4986883;28;20035;-73
2024/01/21 06:48:18;;;;;;;20.55;9.32;;;-3.10;99.90;;;;;;4992715;28;20532;-73
2024/01/21 06:50:48;;;;;;;23.20;11.02;;;-3.10;99.90;;;;;;4991075;28;20490;-74
2024/01/21 06:53:15;;;;;;;21.83;10.45;;;-3.10;99.90;;;;;;4987610;28;20025;-73
2024/01/21 06:55:41;;;;;;;23.60;10.73;;;-3.10;99.90;;;;;;5003702;28;20034;-73
2024/01/21 06:58:07;;;;;;;22.65;10.77;;;-3.10;99.90;;;;;;4990038;28;20072;-72
2024/01/21 07:00:32;;;;;;;24.55;11.27;;;-3.10;99.90;;;;;;4990392;28;20035;-72
2024/01/21 07:02:58;;;;;;;25.40;11.23;;;-3.10;99.90;;;;;;4991015;28;20113;-75
2024/01/21 07:05:23;;;;;;;21.45;9.80;;;-3.10;99.90;;;;;;4988389;28;20057;-72
2024/01/21 07:07:49;;;;;;;22.38;10.38;;;-3.10;99.90;;;;;;4988029;28;20050;-73
2024/01/21 07:10:14;;;;;;;24.63;11.07;;;-3.10;99.90;;;;;;4989728;28;21026;-73
2024/01/21 07:12:40;;;;;;;23.42;11.23;;;-3.10;99.90;;;;;;4987495;28;20386;-74
2024/01/21 07:15:06;;;;;;;26.05;11.00;;;-3.10;99.90;;;;;;4989335;28;20505;-73
2024/01/21 07:17:32;;;;;;;24.10;11.70;;;-3.10;99.90;;;;;;4990422;28;20109;-74
2024/01/21 07:19:57;;;;;;;23.33;11.27;;;-3.10;99.90;;;;;;4987597;28;20130;-73
2024/01/21 07:22:23;;;;;;;27.02;12.75;;;-3.10;99.90;;;;;;4988861;28;20033;-73
2024/01/21 07:24:48;;;;;;;28.70;12.35;;;-3.00;99.90;;;;;;4987405;28;20041;-73
2024/01/21 07:27:14;;;;;;;32.28;14.25;;;-3.10;99.90;;;;;;4987280;28;20477;-73
2024/01/21 07:29:40;;;;;;;25.38;12.27;;;-3.10;99.90;;;;;;4989496;28;20460;-73
2024/01/21 07:32:06;;;;;;;24.52;11.90;;;-3.10;99.90;;;;;;4986174;28;20154;-74
2024/01/21 07:34:32;;;;;;;24.00;12.20;;;-3.10;99.90;;;;;;4989387;28;20038;-73
2024/01/21 07:36:58;;;;;;;25.55;12.63;;;-3.10;99.90;;;;;;4987919;28;20034;-73
2024/01/21 07:39:23;;;;;;;24.13;11.80;;;-3.10;99.90;;;;;;4981993;28;20030;-73
2024/01/21 07:41:49;;;;;;;24.15;11.65;;;-3.10;99.90;;;;;;4988265;28;20081;-73
2024/01/21 07:44:15;;;;;;;25.42;11.98;;;-3.10;99.90;;;;;;4984833;28;20030;-73
2024/01/21 07:46:40;;;;;;;29.52;13.38;;;-3.10;99.90;;;;;;4989220;28;20113;-73
2024/01/21 07:49:06;;;;;;;23.88;12.60;;;-3.10;99.90;;;;;;4989725;28;20038;-72
2024/01/21 07:51:31;;;;;;;24.02;12.05;;;-3.10;99.90;;;;;;4982380;28;20022;-69
2024/01/21 07:53:57;;;;;;;24.20;11.73;;;-3.10;99.90;;;;;;4987097;28;20030;-71
2024/01/21 07:56:22;;;;;;;24.48;12.13;;;-3.10;99.90;;;;;;4986124;28;20080;-70
2024/01/21 07:58:48;;;;;;;30.02;12.63;;;-3.10;99.90;;;;;;4986783;28;20061;-70
2024/01/21 08:01:14;;;;;;;24.05;11.93;;;-3.20;99.90;;;;;;4979725;28;20413;-70
2024/01/21 08:03:40;;;;;;;23.40;11.55;;;-3.20;99.90;;;;;;4986182;28;20026;-70
2024/01/21 08:06:09;;;;;;;27.45;12.23;;;-3.10;99.90;;;;;;4987907;28;20049;-70
2024/01/21 08:08:35;;;;;;;19.48;10.80;;;-3.00;99.90;;;;;;4984460;28;20085;-72
2024/01/21 08:11:00;;;;;;;23.35;11.50;;;-2.90;99.90;;;;;;4985539;28;20034;-73
2024/01/21 08:13:26;;;;;;;23.27;11.20;;;-2.80;99.90;;;;;;4987762;28;20512;-72
2024/01/21 08:15:52;;;;;;;21.80;11.05;;;-2.70;99.90;;;;;;4983365;28;20522;-71
2024/01/21 08:18:19;;;;;;;22.83;10.88;;;-2.60;99.90;;;;;;4983722;28;20018;-72
2024/01/21 08:20:45;;;;;;;23.95;11.70;;;-2.60;99.90;;;;;;4985173;28;20486;-72
2024/01/21 08:23:11;;;;;;;23.20;11.63;;;-2.50;99.90;;;;;;4985949;28;20091;-73
2024/01/21 08:25:36;;;;;;;22.75;11.23;;;-2.40;99.90;;;;;;4988056;28;20030;-73
2024/01/21 08:28:02;;;;;;;23.25;11.40;;;-2.30;99.90;;;;;;4986411;28;20443;-72
2024/01/21 08:30:28;;;;;;;30.23;13.85;;;-2.20;99.90;;;;;;4985357;28;20034;-73
2024/01/21 08:32:54;;;;;;;27.15;13.10;;;-2.10;99.90;;;;;;4983637;28;20460;-72
2024/01/21 08:35:20;;;;;;;27.55;12.40;;;-2.00;99.90;;;;;;4983831;28;20033;-71
2024/01/21 08:37:49;;;;;;;25.50;11.23;;;-1.90;99.90;;;;;;4977176;28;20031;-73
2024/01/21 08:40:15;;;;;;;25.85;11.32;;;-1.80;99.90;;;;;;4982537;28;20101;-73
2024/01/21 08:42:41;;;;;;;17.20;9.48;;;-1.80;99.90;;;;;;4985086;28;20080;-73
2024/01/21 08:45:07;;;;;;;21.95;9.75;;;-1.70;99.90;;;;;;4985538;28;20065;-73
2024/01/21 08:47:33;;;;;;;20.50;11.30;;;-1.60;99.90;;;;;;4985670;28;20061;-74
2024/01/21 08:49:59;;;;;;;24.38;12.50;;;-1.60;99.90;;;;;;4984980;28;20057;-74
2024/01/21 08:52:25;;;;;;;23.52;12.63;;;-1.60;99.90;;;;;;4983529;28;20065;-73
2024/01/21 08:54:50;;;;;;;26.65;11.75;;;-1.60;99.90;;;;;;4985734;28;20022;-74
2024/01/21 08:57:16;;;;;;;26.10;12.18;;;-1.50;99.90;;;;;;4987591;28;20038;-73
2024/01/21 08:59:42;;;;;;;23.95;11.82;;;-1.50;99.90;;;;;;4988556;28;20040;-72
2024/01/21 09:02:08;;;;;;;22.80;11.20;;;-1.50;99.90;;;;;;4983066;28;20165;-73
2024/01/21 09:04:33;;;;;;;23.15;11.98;;;-1.50;99.90;;;;;;4986650;28;20023;-73
2024/01/21 09:07:02;;;;;;;19.10;9.38;;;-1.50;99.90;;;;;;4987979;28;20022;-73
2024/01/21 09:09:30;;;;;;;19.65;10.98;;;-1.50;99.90;;;;;;5004877;28;20027;-74
2024/01/21 09:11:57;;;;;;;15.75;9.05;;;-1.40;99.90;;;;;;4987753;28;20018;-73
2024/01/21 09:14:22;;;;;;;21.15;10.18;;;-1.40;99.90;;;;;;4987651;28;20038;-74
2024/01/21 09:16:48;;;;;;;20.38;11.23;;;-1.40;99.90;;;;;;4997050;28;20097;-74
2024/01/21 09:19:14;;;;;;;18.50;9.52;;;-1.30;99.90;;;;;;4996869;28;20030;-73
2024/01/21 09:21:39;;;;;;;18.83;10.32;;;-1.30;99.90;;;;;;4990286;28;20084;-73
2024/01/21 09:24:07;;;;;;;20.40;10.45;;;-1.20;99.90;;;;;;4987318;28;20064;-73
2024/01/21 09:26:33;;;;;;;17.45;9.73;;;-1.20;99.90;;;;;;4989553;28;20027;-75
2024/01/21 09:28:58;;;;;;;20.90;11.55;;;-1.10;99.90;;;;;;4986663;28;20036;-73
2024/01/21 09:31:24;;;;;;;21.05;11.57;;;-1.10;99.90;;;;;;4985987;28;20401;-74
2024/01/21 09:33:50;;;;;;;24.73;13.38;;;-1.00;99.90;;;;;;4987004;28;20145;-75
2024/01/21 09:36:15;;;;;;;22.85;11.88;;;-0.90;99.90;;;;;;4987897;28;20026;-74
2024/01/21 09:38:41;;;;;;;21.23;11.13;;;-0.90;99.90;;;;;;4987427;28;20064;-72
2024/01/21 09:41:13;;;;;;;25.65;12.23;;;-0.80;99.90;;;;;;4988445;28;20037;-74
2024/01/21 09:43:43;;;;;;;22.35;11.07;;;-0.80;99.90;;;;;;4986962;28;20398;-74
2024/01/21 09:46:12;;;;;;;21.33;10.82;;;-0.70;99.90;;;;;;4985906;28;20037;-73
2024/01/21 09:48:38;;;;;;;22.00;11.75;;;-0.70;99.90;;;;;;4983884;28;20065;-73
2024/01/21 09:51:06;;;;;;;23.17;10.90;;;-0.60;99.90;;;;;;4984131;28;20066;-73
2024/01/21 09:53:32;;;;;;;21.45;11.73;;;-0.60;99.90;;;;;;4985959;28;20030;-73
2024/01/21 09:56:07;;;;;;;20.17;11.05;;;-0.50;99.90;;;;;;4988886;28;20482;-73
2024/01/21 09:58:54;;;;;;;20.98;10.77;;;-0.50;99.90;;;;;;4986785;28;20509;-73
2024/01/21 10:01:20;;;;;;;21.13;11.13;;;-0.40;99.90;;;;;;4984876;28;20050;-73
2024/01/21 10:03:46;;;;;;;20.02;11.18;;;-0.40;99.90;;;;;;4983761;28;21391;-74
2024/01/21 10:06:12;;;;;;;22.80;11.32;;;-0.30;99.90;;;;;;4986928;28;20093;-73
2024/01/21 10:08:42;;;;;;;24.38;12.75;;;-0.30;99.90;;;;;;4988026;28;20482;-73
2024/01/21 10:11:08;;;;;;;35.33;12.52;;;-0.20;99.90;;;;;;4990534;28;20018;-73
2024/01/21 10:13:36;;;;;;;21.73;11.75;;;-0.20;99.90;;;;;;4990177;28;20033;-72
2024/01/21 10:16:02;;;;;;;22.67;12.25;;;-0.20;99.90;;;;;;4991203;28;20034;-73
2024/01/21 10:18:28;;;;;;;23.88;12.18;;;-0.20;99.90;;;;;;4987795;28;20389;-74
2024/01/21 10:20:56;;;;;;;29.42;14.32;;;-0.10;99.90;;;;;;4986707;28;20027;-72
2024/01/21 10:23:22;;;;;;;29.98;13.75;;;-0.10;99.90;;;;;;4985471;28;20018;-72
2024/01/21 10:25:48;;;;;;;24.48;12.50;;;-0.10;99.90;;;;;;4985765;28;20073;-74
2024/01/21 10:28:15;;;;;;;25.45;14.60;;;0.00;99.90;;;;;;4989501;28;20022;-72
2024/01/21 10:30:42;;;;;;;26.40;13.55;;;0.00;99.90;;;;;;4986347;28;20026;-74
2024/01/21 10:33:08;;;;;;;24.05;13.07;;;0.10;99.90;;;;;;4989039;28;20023;-73
2024/01/21 10:35:34;;;;;;;30.50;13.27;;;0.10;99.90;;;;;;4987076;28;20085;-74
2024/01/21 10:38:02;;;;;;;30.77;14.07;;;0.10;99.90;;;;;;4989040;28;20061;-73
2024/01/21 10:40:28;;;;;;;26.60;14.10;;;0.20;99.90;;;;;;4986699;28;20018;-72
2024/01/21 10:42:58;;;;;;;24.98;13.98;;;0.30;99.90;;;;;;4987918;28;20042;-73
2024/01/21 10:45:28;;;;;;;23.58;13.10;;;0.30;99.90;;;;;;4992011;28;20551;-73
2024/01/21 10:47:57;;;;;;;25.85;14.88;;;0.40;99.90;;;;;;4989347;28;20541;-72
2024/01/21 10:50:23;;;;;;;31.38;14.73;;;0.40;99.90;;;;;;4987890;28;20026;-72
2024/01/21 10:52:50;;;;;;;22.98;13.18;;;0.40;99.90;;;;;;4988228;28;20091;-73
2024/01/21 10:55:16;;;;;;;26.45;13.68;;;0.50;99.90;;;;;;4990774;28;20540;-75
2024/01/21 10:57:50;;;;;;;27.08;13.00;;;0.50;99.90;;;;;;4991019;28;20027;-73
2024/01/21 11:00:17;;;;;;;22.77;13.20;;;0.60;99.90;;;;;;4991256;28;20045;-73
2024/01/21 11:03:21;;;;;;;25.17;12.48;;;0.70;99.90;;;;;;4990007;28;20478;-73
2024/01/21 11:05:47;;;;;;;20.15;11.38;;;0.80;99.90;;;;;;5006054;28;20031;-74
2024/01/21 11:08:15;;;;;;;22.15;12.85;;;0.90;99.90;;;;;;4988288;28;20462;-73
2024/01/21 11:10:40;;;;;;;26.33;12.18;;;1.00;99.90;;;;;;4987939;28;20036;-73
2024/01/21 11:13:06;;;;;;;23.40;13.27;;;1.10;99.90;;;;;;4989382;28;20441;-75
2024/01/21 11:15:32;;;;;;;26.95;13.63;;;1.20;99.90;;;;;;4988975;28;21020;-73
2024/01/21 11:18:09;;;;;;;23.20;13.23;;;1.20;99.90;;;;;;4986082;28;20114;-74
2024/01/21 11:20:34;;;;;;;23.73;12.13;;;1.20;99.90;;;;;;4988617;28;20110;-77
2024/01/21 11:23:00;;;;;;;21.08;11.82;;;1.30;99.90;;;;;;4986830;28;20474;-74
2024/01/21 11:25:33;;;;;;;22.73;13.20;;;1.30;99.90;;;;;;4988831;28;20085;-74
2024/01/21 11:28:03;;;;;;;24.30;12.38;;;1.40;99.90;;;;;;4988147;28;20030;-75
2024/01/21 11:30:29;;;;;;;21.55;12.60;;;1.40;99.90;;;;;;4990599;28;20033;-74
2024/01/21 11:32:59;;;;;;;21.48;10.85;;;1.50;99.90;;;;;;4985434;28;20043;-74
2024/01/21 11:35:27;;;;;;;13.02;8.10;;;1.50;99.90;;;;;;4986275;28;20611;-74
2024/01/21 11:37:53;;;;;;;16.27;8.02;;;1.60;99.90;;;;;;4989684;28;20472;-73
2024/01/21 11:40:19;;;;;;;16.08;8.02;;;1.70;99.90;;;;;;4986355;28;20033;-75
2024/01/21 11:42:49;;;;;;;15.63;8.10;;;1.80;99.90;;;;;;4984929;28;20030;-73
2024/01/21 11:45:17;;;;;;;15.20;7.45;;;1.90;99.90;;;;;;5004076;28;20081;-73
2024/01/21 11:47:45;;;;;;;12.07;6.97;;;2.00;99.90;;;;;;5001508;28;20543;-73
2024/01/21 11:50:10;;;;;;;15.80;8.50;;;2.00;99.90;;;;;;4987502;28;20022;-74
2024/01/21 11:52:36;;;;;;;21.13;10.70;;;2.10;99.90;;;;;;4988570;28;20047;-74
2024/01/21 11:55:02;;;;;;;22.40;11.65;;;2.20;99.90;;;;;;4989234;28;20373;-75
2024/01/21 11:57:28;;;;;;;23.55;13.50;;;2.20;99.90;;;;;;4986810;28;20029;-73
2024/01/21 11:59:54;;;;;;;23.13;13.50;;;2.10;99.90;;;;;;4988297;28;20030;-74
2024/01/21 12:02:20;;;;;;;25.73;13.80;;;2.00;99.90;;;;;;4988924;28;20026;-73
2024/01/21 12:04:46;;;;;;;23.88;13.18;;;2.00;99.90;;;;;;4984948;28;20030;-75
2024/01/21 12:07:12;;;;;;;22.38;13.63;;;1.90;99.90;;;;;;4983920;28;20035;-72
2024/01/21 12:09:38;;;;;;;24.25;13.13;;;1.90;99.90;;;;;;4983737;28;20518;-75
2024/01/21 12:12:07;;;;;;;23.88;12.40;;;1.80;99.90;;;;;;4987788;28;20026;-74
2024/01/21 12:14:33;;;;;;;23.75;12.95;;;1.90;99.90;;;;;;4977522;28;20080;-74
2024/01/21 12:17:01;;;;;;;23.80;13.40;;;1.80;99.90;;;;;;4988320;28;20026;-75
2024/01/21 12:19:27;;;;;;;32.78;14.75;;;1.80;99.90;;;;;;4982228;28;20073;-74
2024/01/21 12:21:54;;;;;;;29.00;14.45;;;1.80;99.90;;;;;;4983787;28;20628;-74
2024/01/21 12:24:23;;;;;;;25.40;13.10;;;1.80;99.90;;;;;;4986633;28;20293;-73
2024/01/21 12:26:48;;;;;;;25.10;13.40;;;1.70;99.90;;;;;;4980443;28;20030;-72